Aviation Digital Data Service (ADDS)

Output produced by METARs form (0537 UTC 19 March 2019)
found at http://www.aviationweather.gov/metar/data/
 
METAR text: GLRB 190500Z 00000KT 8000 SCT014 26/25 Q1008 RMK BRVC
Conditions at: GLRB (ROBERTS INTL/MON, LR) observed 0500 UTC 19 March 2019
Temperature: 26.0°C (79°F)
Dewpoint: 25.0°C (77°F) [RH = 94%]
Pressure (altimeter): 29.76 inches Hg (1008.0 mb)
Winds: calm
Visibility: 5 miles ( 8 km)
Ceiling: at least 12,000 feet AGL
Clouds: scattered clouds at 1400 feet AGL
Weather: no significant weather observed at this time

METAR text: GLRB 190300Z 00000KT 8000 SCT014 26/25 Q1008 RMK BRVC
Conditions at: GLRB (ROBERTS INTL/MON, LR) observed 0300 UTC 19 March 2019
Temperature: 26.0°C (79°F)
Dewpoint: 25.0°C (77°F) [RH = 94%]
Pressure (altimeter): 29.76 inches Hg (1008.0 mb)
Winds: calm
Visibility: 5 miles ( 8 km)
Ceiling: at least 12,000 feet AGL
Clouds: scattered clouds at 1400 feet AGL
Weather: no significant weather observed at this time

METAR text: GLRB 190200Z 00000KT 8000 FEW014 26/25 Q1010 RMK BRVC
Conditions at: GLRB (ROBERTS INTL/MON, LR) observed 0200 UTC 19 March 2019
Temperature: 26.0°C (79°F)
Dewpoint: 25.0°C (77°F) [RH = 94%]
Pressure (altimeter): 29.82 inches Hg (1010.0 mb)
Winds: calm
Visibility: 5 miles ( 8 km)
Ceiling: at least 12,000 feet AGL
Clouds: few clouds at 1400 feet AGL
Weather: no significant weather observed at this time

METAR text: GLRB 190100Z 00000KT 9999 FEW014 26/25 Q1010 NOSIG
Conditions at: GLRB (ROBERTS INTL/MON, LR) observed 0100 UTC 19 March 2019
Temperature: 26.0°C (79°F)
Dewpoint: 25.0°C (77°F) [RH = 94%]
Pressure (altimeter): 29.82 inches Hg (1010.0 mb)
Winds: calm
Visibility: 6 or more miles (10+ km)
Ceiling: at least 12,000 feet AGL
Clouds: few clouds at 1400 feet AGL
Weather: no significant weather observed at this time

METAR text: GLRB 190000Z 00000KT 9999 FEW014 26/25 Q1011 NOSIG
Conditions at: GLRB (ROBERTS INTL/MON, LR) observed 0000 UTC 19 March 2019
Temperature: 26.0°C (79°F)
Dewpoint: 25.0°C (77°F) [RH = 94%]
Pressure (altimeter): 29.85 inches Hg (1011.0 mb)
Winds: calm
Visibility: 6 or more miles (10+ km)
Ceiling: at least 12,000 feet AGL
Clouds: few clouds at 1400 feet AGL
Weather: no significant weather observed at this time

METAR text: GLRB 182300Z 00000KT 9999 FEW014 27/25 Q1010 NOSIG
Conditions at: GLRB (ROBERTS INTL/MON, LR) observed 2300 UTC 18 March 2019
Temperature: 27.0°C (81°F)
Dewpoint: 25.0°C (77°F) [RH = 89%]
Pressure (altimeter): 29.82 inches Hg (1010.0 mb)
Winds: calm
Visibility: 6 or more miles (10+ km)
Ceiling: at least 12,000 feet AGL
Clouds: few clouds at 1400 feet AGL
Weather: no significant weather observed at this time

METAR text: GLRB 182200Z 00000KT 9999 FEW014 27/25 Q1010 NOSIG
Conditions at: GLRB (ROBERTS INTL/MON, LR) observed 2200 UTC 18 March 2019
Temperature: 27.0°C (81°F)
Dewpoint: 25.0°C (77°F) [RH = 89%]
Pressure (altimeter): 29.82 inches Hg (1010.0 mb)
Winds: calm
Visibility: 6 or more miles (10+ km)
Ceiling: at least 12,000 feet AGL
Clouds: few clouds at 1400 feet AGL
Weather: no significant weather observed at this time

METAR text: GLRB 182100Z 00000KT 9999 SCT016 28/25 Q1010 NOSIG
Conditions at: GLRB (ROBERTS INTL/MON, LR) observed 2100 UTC 18 March 2019
Temperature: 28.0°C (82°F)
Dewpoint: 25.0°C (77°F) [RH = 84%]
Pressure (altimeter): 29.82 inches Hg (1010.0 mb)
Winds: calm
Visibility: 6 or more miles (10+ km)
Ceiling: at least 12,000 feet AGL
Clouds: scattered clouds at 1600 feet AGL
Weather: no significant weather observed at this time

METAR text: GLRB 182000Z 00000KT 9999 SCT016 28/25 Q1009 NOSIG
Conditions at: GLRB (ROBERTS INTL/MON, LR) observed 2000 UTC 18 March 2019
Temperature: 28.0°C (82°F)
Dewpoint: 25.0°C (77°F) [RH = 84%]
Pressure (altimeter): 29.79 inches Hg (1009.0 mb)
Winds: calm
Visibility: 6 or more miles (10+ km)
Ceiling: at least 12,000 feet AGL
Clouds: scattered clouds at 1600 feet AGL
Weather: no significant weather observed at this time

METAR text: GLRB 181900Z 20003KT 9999 SCT016 29/25 Q1009 NOSIG
Conditions at: GLRB (ROBERTS INTL/MON, LR) observed 1900 UTC 18 March 2019
Temperature: 29.0°C (84°F)
Dewpoint: 25.0°C (77°F) [RH = 79%]
Pressure (altimeter): 29.79 inches Hg (1009.0 mb)
Winds: from the SSW (200 degrees) at 3 MPH (3 knots; 1.5 m/s)
Visibility: 6 or more miles (10+ km)
Ceiling: at least 12,000 feet AGL
Clouds: scattered clouds at 1600 feet AGL
Weather: no significant weather observed at this time

METAR text: GLRB 181800Z 19004KT 9999 SCT018 30/25 Q1008 NOSIG
Conditions at: GLRB (ROBERTS INTL/MON, LR) observed 1800 UTC 18 March 2019
Temperature: 30.0°C (86°F)
Dewpoint: 25.0°C (77°F) [RH = 75%]
Pressure (altimeter): 29.76 inches Hg (1008.0 mb)
Winds: from the S (190 degrees) at 5 MPH (4 knots; 2.1 m/s)
Visibility: 6 or more miles (10+ km)
Ceiling: at least 12,000 feet AGL
Clouds: scattered clouds at 1800 feet AGL
Weather: no significant weather observed at this time

METAR text: GLRB 181700Z 15007KT 9999 SCT020 31/25 Q1008 NOSIG
Conditions at: GLRB (ROBERTS INTL/MON, LR) observed 1700 UTC 18 March 2019
Temperature: 31.0°C (88°F)
Dewpoint: 25.0°C (77°F) [RH = 71%]
Pressure (altimeter): 29.76 inches Hg (1008.0 mb)
Winds: from the SSE (150 degrees) at 8 MPH (7 knots; 3.6 m/s)
Visibility: 6 or more miles (10+ km)
Ceiling: at least 12,000 feet AGL
Clouds: scattered clouds at 2000 feet AGL
Weather: no significant weather observed at this time

METAR text: GLRB 181600Z 18008KT 9999 SCT020 32/25 Q1009 NOSIG
Conditions at: GLRB (ROBERTS INTL/MON, LR) observed 1600 UTC 18 March 2019
Temperature: 32.0°C (90°F)
Dewpoint: 25.0°C (77°F) [RH = 67%]
Pressure (altimeter): 29.79 inches Hg (1009.0 mb)
Winds: from the S (180 degrees) at 9 MPH (8 knots; 4.1 m/s)
Visibility: 6 or more miles (10+ km)
Ceiling: at least 12,000 feet AGL
Clouds: scattered clouds at 2000 feet AGL
Weather: no significant weather observed at this time

METAR text: GLRB 181500Z 17010KT 9999 FEW024 34/24 Q1009 NOSIG
Conditions at: GLRB (ROBERTS INTL/MON, LR) observed 1500 UTC 18 March 2019
Temperature: 34.0°C (93°F)
Dewpoint: 24.0°C (75°F) [RH = 56%]
Pressure (altimeter): 29.79 inches Hg (1009.0 mb)
Winds: from the S (170 degrees) at 12 MPH (10 knots; 5.1 m/s)
Visibility: 6 or more miles (10+ km)
Ceiling: at least 12,000 feet AGL
Clouds: few clouds at 2400 feet AGL
Weather: no significant weather observed at this time

METAR text: GLRB 181400Z 20010KT 9999 SCT024 34/24 Q1009 NOSIG
Conditions at: GLRB (ROBERTS INTL/MON, LR) observed 1400 UTC 18 March 2019
Temperature: 34.0°C (93°F)
Dewpoint: 24.0°C (75°F) [RH = 56%]
Pressure (altimeter): 29.79 inches Hg (1009.0 mb)
Winds: from the SSW (200 degrees) at 12 MPH (10 knots; 5.1 m/s)
Visibility: 6 or more miles (10+ km)
Ceiling: at least 12,000 feet AGL
Clouds: scattered clouds at 2400 feet AGL
Weather: no significant weather observed at this time

METAR text: GLRB 181300Z 20012KT 9999 SCT024 34/24 Q1011 NOSIG
Conditions at: GLRB (ROBERTS INTL/MON, LR) observed 1300 UTC 18 March 2019
Temperature: 34.0°C (93°F)
Dewpoint: 24.0°C (75°F) [RH = 56%]
Pressure (altimeter): 29.85 inches Hg (1011.0 mb)
Winds: from the SSW (200 degrees) at 14 MPH (12 knots; 6.2 m/s)
Visibility: 6 or more miles (10+ km)
Ceiling: at least 12,000 feet AGL
Clouds: scattered clouds at 2400 feet AGL
Weather: no significant weather observed at this time

METAR text: GLRB 181200Z 17008KT 9999 BKN022 33/26 Q1011 NOSIG
Conditions at: GLRB (ROBERTS INTL/MON, LR) observed 1200 UTC 18 March 2019
Temperature: 33.0°C (91°F)
Dewpoint: 26.0°C (79°F) [RH = 67%]
Pressure (altimeter): 29.85 inches Hg (1011.0 mb)
Winds: from the S (170 degrees) at 9 MPH (8 knots; 4.1 m/s)
Visibility: 6 or more miles (10+ km)
Ceiling: 2200 feet AGL
Clouds: broken clouds at 2200 feet AGL
Weather: no significant weather observed at this time

METAR text: GLRB 181100Z 23006KT 9999 BKN018 32/24 Q1012 NOSIG
Conditions at: GLRB (ROBERTS INTL/MON, LR) observed 1100 UTC 18 March 2019
Temperature: 32.0°C (90°F)
Dewpoint: 24.0°C (75°F) [RH = 63%]
Pressure (altimeter): 29.88 inches Hg (1012.0 mb)
Winds: from the SW (230 degrees) at 7 MPH (6 knots; 3.1 m/s)
Visibility: 6 or more miles (10+ km)
Ceiling: 1800 feet AGL
Clouds: broken clouds at 1800 feet AGL
Weather: no significant weather observed at this time

METAR text: GLRB 180900Z 00000KT 7000 FEW008 BKN013 28/23 Q1012 RMK HZVC
Conditions at: GLRB (ROBERTS INTL/MON, LR) observed 0900 UTC 18 March 2019
Temperature: 28.0°C (82°F)
Dewpoint: 23.0°C (73°F) [RH = 74%]
Pressure (altimeter): 29.88 inches Hg (1012.0 mb)
Winds: calm
Visibility: 4 miles ( 7 km)
Ceiling: 1300 feet AGL
Clouds: few clouds at 800 feet AGL
broken clouds at 1300 feet AGL
Weather: no significant weather observed at this time

METAR text: GLRB 180800Z 00000KT 7000 FEW007 BKN011 25/24 Q1011 RMK BRVC
Conditions at: GLRB (ROBERTS INTL/MON, LR) observed 0800 UTC 18 March 2019
Temperature: 25.0°C (77°F)
Dewpoint: 24.0°C (75°F) [RH = 94%]
Pressure (altimeter): 29.85 inches Hg (1011.0 mb)
Winds: calm
Visibility: 4 miles ( 7 km)
Ceiling: 1100 feet AGL
Clouds: few clouds at 700 feet AGL
broken clouds at 1100 feet AGL
Weather: no significant weather observed at this time

METAR text: GLRB 180700Z 34005KT 6000 BR FEW006 SCT011 24/23 Q1010
Conditions at: GLRB (ROBERTS INTL/MON, LR) observed 0700 UTC 18 March 2019
Temperature: 24.0°C (75°F)
Dewpoint: 23.0°C (73°F) [RH = 94%]
Pressure (altimeter): 29.82 inches Hg (1010.0 mb)
Winds: from the NNW (340 degrees) at 6 MPH (5 knots; 2.6 m/s)
Visibility: 4 miles ( 6 km)
Ceiling: at least 12,000 feet AGL
Clouds: few clouds at 600 feet AGL
scattered clouds at 1100 feet AGL
Weather: BR  (mist)

METAR text: GLRB 180600Z 35003KT 7000 BKN011 24/23 Q1009 RMK BRVC
Conditions at: GLRB (ROBERTS INTL/MON, LR) observed 0600 UTC 18 March 2019
Temperature: 24.0°C (75°F)
Dewpoint: 23.0°C (73°F) [RH = 94%]
Pressure (altimeter): 29.79 inches Hg (1009.0 mb)
Winds: from the N (350 degrees) at 3 MPH (3 knots; 1.5 m/s)
Visibility: 4 miles ( 7 km)
Ceiling: 1100 feet AGL
Clouds: broken clouds at 1100 feet AGL
Weather: no significant weather observed at this time

METAR text: GLRB 180500Z 35005KT 7000 BKN011 24/22 Q1009 RMK BRVC
Conditions at: GLRB (ROBERTS INTL/MON, LR) observed 0500 UTC 18 March 2019
Temperature: 24.0°C (75°F)
Dewpoint: 22.0°C (72°F) [RH = 89%]
Pressure (altimeter): 29.79 inches Hg (1009.0 mb)
Winds: from the N (350 degrees) at 6 MPH (5 knots; 2.6 m/s)
Visibility: 4 miles ( 7 km)
Ceiling: 1100 feet AGL
Clouds: broken clouds at 1100 feet AGL
Weather: no significant weather observed at this time

METAR text: GLRB 180300Z 00000KT 9000 FEW011 24/22 Q1009 RMK BRVC
Conditions at: GLRB (ROBERTS INTL/MON, LR) observed 0300 UTC 18 March 2019
Temperature: 24.0°C (75°F)
Dewpoint: 22.0°C (72°F) [RH = 89%]
Pressure (altimeter): 29.79 inches Hg (1009.0 mb)
Winds: calm
Visibility: 6 miles ( 9 km)
Ceiling: at least 12,000 feet AGL
Clouds: few clouds at 1100 feet AGL
Weather: no significant weather observed at this time

METAR text: GLRB 180200Z 00000KT 8000 FEW011 24/22 Q1010 RMK BRVC
Conditions at: GLRB (ROBERTS INTL/MON, LR) observed 0200 UTC 18 March 2019
Temperature: 24.0°C (75°F)
Dewpoint: 22.0°C (72°F) [RH = 89%]
Pressure (altimeter): 29.82 inches Hg (1010.0 mb)
Winds: calm
Visibility: 5 miles ( 8 km)
Ceiling: at least 12,000 feet AGL
Clouds: few clouds at 1100 feet AGL
Weather: no significant weather observed at this time

METAR text: GLRB 180100Z 00000KT 8000 SCT011 24/22 Q1010 RMK BRVC
Conditions at: GLRB (ROBERTS INTL/MON, LR) observed 0100 UTC 18 March 2019
Temperature: 24.0°C (75°F)
Dewpoint: 22.0°C (72°F) [RH = 89%]
Pressure (altimeter): 29.82 inches Hg (1010.0 mb)
Winds: calm
Visibility: 5 miles ( 8 km)
Ceiling: at least 12,000 feet AGL
Clouds: scattered clouds at 1100 feet AGL
Weather: no significant weather observed at this time

METAR text: GLRB 180000Z 34004KT 9000 SCT013 25/22 Q1011 RMK BRVC
Conditions at: GLRB (ROBERTS INTL/MON, LR) observed 0000 UTC 18 March 2019
Temperature: 25.0°C (77°F)
Dewpoint: 22.0°C (72°F) [RH = 83%]
Pressure (altimeter): 29.85 inches Hg (1011.0 mb)
Winds: from the NNW (340 degrees) at 5 MPH (4 knots; 2.1 m/s)
Visibility: 6 miles ( 9 km)
Ceiling: at least 12,000 feet AGL
Clouds: scattered clouds at 1300 feet AGL
Weather: no significant weather observed at this time

METAR text: GLRB 172300Z 35004KT 9999 SCT015 FEW024CB 26/22 Q1011 RMK CB-NE/NW
Conditions at: GLRB (ROBERTS INTL/MON, LR) observed 2300 UTC 17 March 2019
Temperature: 26.0°C (79°F)
Dewpoint: 22.0°C (72°F) [RH = 79%]
Pressure (altimeter): 29.85 inches Hg (1011.0 mb)
Winds: from the N (350 degrees) at 5 MPH (4 knots; 2.1 m/s)
Visibility: 6 or more miles (10+ km)
Ceiling: at least 12,000 feet AGL
Clouds: scattered clouds at 1500 feet AGL
few clouds at 2400 feet AGL
Weather: no significant weather observed at this time

METAR text: GLRB 172200Z 00000KT 9999 TS BKN015 FEW024CB 26/22 Q1011 TEMPO TS RMK CB-NE/SW/W/NW
Conditions at: GLRB (ROBERTS INTL/MON, LR) observed 2200 UTC 17 March 2019
Temperature: 26.0°C (79°F)
Dewpoint: 22.0°C (72°F) [RH = 79%]
Pressure (altimeter): 29.85 inches Hg (1011.0 mb)
Winds: calm
Visibility: 6 or more miles (10+ km)
Ceiling: 1500 feet AGL
Clouds: broken clouds at 1500 feet AGL
few clouds at 2400 feet AGL
Weather: TS  (thunderstorm)

METAR text: GLRB 172100Z 11005KT 9999 TS BKN016 FEW024CB 27/23 Q1010 TEMPO TS RMK CB-NE/SW/W/NW
Conditions at: GLRB (ROBERTS INTL/MON, LR) observed 2100 UTC 17 March 2019
Temperature: 27.0°C (81°F)
Dewpoint: 23.0°C (73°F) [RH = 79%]
Pressure (altimeter): 29.82 inches Hg (1010.0 mb)
Winds: from the ESE (110 degrees) at 6 MPH (5 knots; 2.6 m/s)
Visibility: 6 or more miles (10+ km)
Ceiling: 1600 feet AGL
Clouds: broken clouds at 1600 feet AGL
few clouds at 2400 feet AGL
Weather: TS  (thunderstorm)

METAR text: GLRB 172000Z 18003KT 9999 TS BKN016 FEW024CB 28/24 Q1010 TEMPO TS RMK CB-N/NE/SW/NW
Conditions at: GLRB (ROBERTS INTL/MON, LR) observed 2000 UTC 17 March 2019
Temperature: 28.0°C (82°F)
Dewpoint: 24.0°C (75°F) [RH = 79%]
Pressure (altimeter): 29.82 inches Hg (1010.0 mb)
Winds: from the S (180 degrees) at 3 MPH (3 knots; 1.5 m/s)
Visibility: 6 or more miles (10+ km)
Ceiling: 1600 feet AGL
Clouds: broken clouds at 1600 feet AGL
few clouds at 2400 feet AGL
Weather: TS  (thunderstorm)

METAR text: GLRB 171900Z 15003KT 9999 TS BKN018 FEW024CB 29/26 Q1009 TEMPO TS RMK CB-NE/E/SE
Conditions at: GLRB (ROBERTS INTL/MON, LR) observed 1900 UTC 17 March 2019
Temperature: 29.0°C (84°F)
Dewpoint: 26.0°C (79°F) [RH = 84%]
Pressure (altimeter): 29.79 inches Hg (1009.0 mb)
Winds: from the SSE (150 degrees) at 3 MPH (3 knots; 1.5 m/s)
Visibility: 6 or more miles (10+ km)
Ceiling: 1800 feet AGL
Clouds: broken clouds at 1800 feet AGL
few clouds at 2400 feet AGL
Weather: TS  (thunderstorm)

METAR text: GLRB 171800Z 17008KT 9999 SCT021 FEW024CB 31/25 Q1008 RMK CB-NE/E
Conditions at: GLRB (ROBERTS INTL/MON, LR) observed 1800 UTC 17 March 2019
Temperature: 31.0°C (88°F)
Dewpoint: 25.0°C (77°F) [RH = 71%]
Pressure (altimeter): 29.76 inches Hg (1008.0 mb)
Winds: from the S (170 degrees) at 9 MPH (8 knots; 4.1 m/s)
Visibility: 6 or more miles (10+ km)
Ceiling: at least 12,000 feet AGL
Clouds: scattered clouds at 2100 feet AGL
few clouds at 2400 feet AGL
Weather: no significant weather observed at this time

Forecast for: GLRB (ROBERTS INTL/MON, LR)
Text: TAF GLRB 182200Z 1900/2006 00000KT 9999 FEW012
Forecast period: 0000 UTC 19 March 2019 to 0600 UTC 20 March 2019
Forecast type: FROM: standard forecast or significant change
Winds: calm
Visibility: 6 or more miles 10+ km)
Ceiling: at least 12,000 feet AGL
Clouds: few clouds at 1200 feet AGL
Weather: no significant weather forecast for this period
Text: TEMPO 1901/1905 07005KT 8000 TS SCT011 FEW023CB
Forecast period: 0100 to 0500 UTC 19 March 2019
Forecast type: TEMPORARY: The following changes expected for less than half the time period
Winds: from the ENE (70 degrees) at 6 MPH (5 knots; 2.6 m/s)
Visibility: 5 miles (8 km)
Ceiling: at least 12,000 feet AGL
Clouds: scattered clouds at 1100 feet AGL
few clouds at 2300 feet AGL
Weather: TS  (thunderstorm)
Text: TEMPO 1906/1910 36006KT 5000 BR SCT008 SCT013
Forecast period: 0600 to 1000 UTC 19 March 2019
Forecast type: TEMPORARY: The following changes expected for less than half the time period
Winds: from the N (360 degrees) at 7 MPH (6 knots; 3.1 m/s)
Visibility: 3 miles (5 km)
Ceiling: at least 12,000 feet AGL
Clouds: scattered clouds at 800 feet AGL
scattered clouds at 1300 feet AGL
Weather: BR  (mist)